createdAt,value
2022-11-06T00:00:01.120Z,20.60
2022-11-06T00:02:43.408Z,20.75
2022-11-06T00:05:50.385Z,20.61
2022-11-06T00:08:44.272Z,20.52
2022-11-06T00:11:33.438Z,20.62
2022-11-06T00:14:23.292Z,20.84
2022-11-06T00:17:11.800Z,20.82
2022-11-06T00:19:54.372Z,20.58
2022-11-06T00:22:38.473Z,20.53
2022-11-06T00:25:27.404Z,20.71
2022-11-06T00:28:09.893Z,20.89
2022-11-06T00:30:59.295Z,20.83
2022-11-06T00:33:49.297Z,20.61
2022-11-06T00:36:33.720Z,20.68
2022-11-06T00:39:22.375Z,20.69
2022-11-06T00:42:05.040Z,20.64
2022-11-06T00:44:54.383Z,20.75
2022-11-06T00:47:37.620Z,20.62
2022-11-06T00:50:26.564Z,20.99
2022-11-06T00:53:08.647Z,20.93
2022-11-06T00:55:59.887Z,20.76
2022-11-06T00:58:42.677Z,21.07
2022-11-06T01:01:42.510Z,20.80
2022-11-06T01:04:34.375Z,20.96
2022-11-06T01:07:16.568Z,20.79
2022-11-06T01:10:05.862Z,21.02
2022-11-06T01:12:53.674Z,21.20
2022-11-06T01:15:35.376Z,21.06
2022-11-06T01:18:17.567Z,21.12
2022-11-06T01:21:06.396Z,21.09
2022-11-06T01:23:55.775Z,21.21
2022-11-06T01:26:45.460Z,20.99
2022-11-06T01:29:48.824Z,21.05
2022-11-06T01:32:31.378Z,21.09
2022-11-06T01:35:13.728Z,21.22
2022-11-06T01:38:02.378Z,21.18
2022-11-06T01:40:47.184Z,21.07
2022-11-06T01:43:58.378Z,21.08
2022-11-06T01:46:47.617Z,21.07
2022-11-06T01:49:29.655Z,21.00
2022-11-06T01:52:21.355Z,21.05
2022-11-06T01:55:10.312Z,20.96
2022-11-06T01:58:00.363Z,21.15
2022-11-06T02:00:49.711Z,21.05
2022-11-06T02:03:32.361Z,21.01
2022-11-06T02:06:21.891Z,21.17
2022-11-06T02:09:03.660Z,20.82
2022-11-06T02:12:05.371Z,21.00
2022-11-06T02:15:16.395Z,20.92
2022-11-06T02:18:25.364Z,20.97
2022-11-06T02:21:10.663Z,20.82
2022-11-06T02:24:18.356Z,20.84
2022-11-06T02:27:26.771Z,21.12
2022-11-06T02:30:19.204Z,21.12
2022-11-06T02:33:13.758Z,21.44
2022-11-06T02:36:14.682Z,21.36
2022-11-06T02:39:06.512Z,21.47
2022-11-06T02:41:57.445Z,21.63
2022-11-06T02:44:43.670Z,21.89
2022-11-06T02:47:36.375Z,21.70
2022-11-06T02:50:27.661Z,21.64
2022-11-06T02:53:19.058Z,21.60
2022-11-06T02:56:17.621Z,21.73
2022-11-06T02:59:13.490Z,21.71
2022-11-06T03:02:02.029Z,21.78
2022-11-06T03:05:03.382Z,21.69
2022-11-06T03:07:55.703Z,21.81
2022-11-06T03:10:54.344Z,21.83
2022-11-06T03:13:52.620Z,22.20
2022-11-06T03:17:09.360Z,22.09
2022-11-06T03:20:02.359Z,21.91
2022-11-06T03:23:05.059Z,22.10
2022-11-06T03:26:00.391Z,22.36
2022-11-06T03:29:01.662Z,22.59
2022-11-06T03:32:06.687Z,23.00
2022-11-06T03:35:15.675Z,23.14
2022-11-06T03:38:20.372Z,23.27
2022-11-06T03:41:25.193Z,23.16
2022-11-06T03:44:11.400Z,23.42
2022-11-06T03:47:26.771Z,23.24
2022-11-06T03:50:33.631Z,23.89
2022-11-06T03:53:36.432Z,23.84
2022-11-06T03:56:25.774Z,23.83
2022-11-06T03:59:26.359Z,24.31
2022-11-06T04:02:16.467Z,25.09
2022-11-06T04:05:34.365Z,25.09
2022-11-06T04:08:44.344Z,25.36
2022-11-06T04:11:49.073Z,25.78
2022-11-06T04:14:41.321Z,26.07
2022-11-06T04:17:25.644Z,26.27
2022-11-06T04:20:18.354Z,26.49
2022-11-06T04:23:10.754Z,26.51
2022-11-06T04:26:38.370Z,26.71
2022-11-06T04:29:47.641Z,25.95
2022-11-06T04:32:42.355Z,26.68
2022-11-06T04:36:02.355Z,26.61
2022-11-06T04:39:09.439Z,26.52
2022-11-06T04:42:26.365Z,27.38
2022-11-06T04:45:33.604Z,27.32
2022-11-06T04:48:24.321Z,26.84
2022-11-06T04:51:09.549Z,27.19
2022-11-06T04:54:01.202Z,27.11
2022-11-06T04:56:50.403Z,26.99
2022-11-06T04:59:32.620Z,27.42
2022-11-06T05:02:21.453Z,27.48
2022-11-06T05:05:03.938Z,27.66
2022-11-06T05:07:52.595Z,27.68
2022-11-06T05:10:36.291Z,27.47
2022-11-06T05:13:25.351Z,27.54
2022-11-06T05:16:08.929Z,27.94
2022-11-06T05:18:57.392Z,27.90
2022-11-06T05:22:15.412Z,27.77
2022-11-06T05:24:57.570Z,27.99
2022-11-06T05:27:46.343Z,27.74
2022-11-06T05:30:36.404Z,27.51
2022-11-06T05:33:25.404Z,27.95
2022-11-06T05:36:14.268Z,28.37
2022-11-06T05:38:56.852Z,28.33
2022-11-06T05:41:45.285Z,28.50
2022-11-06T05:44:27.811Z,28.53
2022-11-06T05:47:16.402Z,28.66
2022-11-06T05:49:58.624Z,28.72
2022-11-06T05:52:47.351Z,28.81
2022-11-06T05:55:30.042Z,28.97
2022-11-06T05:58:19.355Z,29.44
2022-11-06T06:01:07.857Z,29.59
2022-11-06T06:03:50.349Z,29.19
2022-11-06T06:06:32.682Z,29.23
2022-11-06T06:09:21.473Z,29.56
2022-11-06T06:12:03.717Z,29.78
2022-11-06T06:14:53.478Z,29.56
2022-11-06T06:17:36.324Z,29.07
2022-11-06T06:20:26.521Z,29.11
2022-11-06T06:26:33.862Z,29.90
2022-11-06T06:29:15.807Z,29.77
2022-11-06T06:32:04.253Z,30.24
2022-11-06T06:34:53.348Z,30.48
2022-11-06T06:37:42.747Z,29.46
2022-11-06T06:40:27.995Z,30.54
2022-11-06T06:43:16.253Z,29.84
2022-11-06T06:46:05.364Z,30.79
2022-11-06T06:48:54.388Z,30.59
2022-11-06T06:51:36.776Z,30.57
2022-11-06T06:54:25.901Z,30.62
2022-11-06T06:57:09.935Z,30.56
2022-11-06T07:00:01.051Z,30.61
2022-11-06T07:02:50.353Z,30.82
2022-11-06T07:05:40.124Z,30.62
2022-11-06T07:08:22.261Z,30.34
2022-11-06T07:11:08.343Z,30.08
2022-11-06T07:14:00.073Z,30.11
2022-11-06T07:16:53.959Z,30.00
2022-11-06T07:19:46.109Z,30.09
2022-11-06T07:22:36.999Z,29.06
2022-11-06T07:25:27.180Z,29.65
2022-11-06T07:28:10.876Z,29.82
2022-11-06T07:30:59.561Z,28.90
2022-11-06T07:33:53.727Z,29.26
2022-11-06T07:36:37.268Z,28.82
2022-11-06T07:39:19.782Z,28.78
2022-11-06T07:42:08.342Z,29.38
2022-11-06T07:45:04.735Z,28.95
2022-11-06T07:47:58.905Z,29.20
2022-11-06T07:50:41.504Z,29.17
2022-11-06T07:53:30.343Z,29.09
2022-11-06T07:56:19.331Z,28.86
2022-11-06T07:59:01.795Z,28.86
2022-11-06T08:01:50.536Z,28.79
2022-11-06T08:04:34.173Z,29.00
2022-11-06T08:07:23.581Z,28.99
2022-11-06T08:10:13.368Z,28.45
2022-11-06T08:12:55.717Z,28.83
2022-11-06T08:15:44.331Z,28.76
2022-11-06T08:18:26.711Z,28.76
2022-11-06T08:21:15.339Z,28.43
2022-11-06T08:23:57.699Z,28.87
2022-11-06T08:26:46.334Z,28.49
2022-11-06T08:29:28.552Z,28.56
2022-11-06T08:32:17.340Z,28.61
2022-11-06T08:35:06.342Z,28.56
2022-11-06T08:37:49.458Z,28.45
2022-11-06T08:40:38.361Z,28.81
2022-11-06T08:43:28.515Z,28.75
2022-11-06T08:46:17.639Z,28.56
2022-11-06T08:49:00.512Z,28.68
2022-11-06T08:51:42.758Z,28.85
2022-11-06T08:54:31.254Z,28.73
2022-11-06T08:57:20.355Z,28.47
2022-11-06T09:00:02.640Z,28.73
2022-11-06T09:02:52.740Z,28.74
2022-11-06T09:05:36.295Z,28.90
2022-11-06T09:08:26.050Z,28.75
2022-11-06T09:11:08.978Z,28.74
2022-11-06T09:13:57.325Z,28.81
2022-11-06T09:16:47.020Z,28.19
2022-11-06T09:19:29.648Z,28.28
2022-11-06T09:22:18.335Z,28.38
2022-11-06T09:25:08.362Z,28.09
2022-11-06T09:27:59.598Z,28.05
2022-11-06T09:30:48.339Z,28.46
2022-11-06T09:33:37.336Z,28.44
2022-11-06T09:36:26.888Z,28.38
2022-11-06T09:39:08.336Z,28.75
2022-11-06T09:42:10.596Z,28.99
2022-11-06T09:45:40.709Z,28.86
2022-11-06T09:48:41.332Z,28.80
2022-11-06T09:51:30.357Z,28.94
2022-11-06T09:54:34.249Z,28.52
2022-11-06T09:57:27.665Z,29.04
2022-11-06T10:00:21.312Z,29.42
2022-11-06T10:03:18.250Z,29.24
2022-11-06T10:06:07.559Z,29.27
2022-11-06T10:08:57.348Z,29.26
2022-11-06T10:12:27.317Z,29.24
2022-11-06T10:15:19.822Z,28.94
2022-11-06T10:18:14.318Z,28.87
2022-11-06T10:21:08.438Z,28.74
2022-11-06T10:24:04.724Z,28.79
2022-11-06T10:27:03.334Z,28.74
2022-11-06T10:29:58.338Z,28.70
2022-11-06T10:33:13.235Z,28.65
2022-11-06T10:36:15.366Z,28.40
2022-11-06T10:39:06.260Z,28.35
2022-11-06T10:41:57.350Z,28.33
2022-11-06T10:45:10.284Z,28.47
2022-11-06T10:48:37.106Z,28.17
2022-11-06T10:51:53.273Z,28.36
2022-11-06T10:54:48.386Z,28.15
2022-11-06T10:58:02.179Z,27.89
2022-11-06T11:00:52.302Z,28.18
2022-11-06T11:03:52.689Z,28.14
2022-11-06T11:06:35.351Z,28.03
2022-11-06T11:09:42.322Z,28.25
2022-11-06T11:12:41.320Z,28.28
2022-11-06T11:15:27.490Z,28.09
2022-11-06T11:18:42.244Z,27.91
2022-11-06T11:21:29.223Z,27.89
2022-11-06T11:24:25.251Z,27.91
2022-11-06T11:27:15.669Z,27.96
2022-11-06T11:29:58.348Z,27.94
2022-11-06T11:32:46.739Z,27.82
2022-11-06T11:35:35.319Z,27.63
2022-11-06T11:38:19.965Z,27.45
2022-11-06T11:41:37.410Z,27.39
2022-11-06T11:44:21.274Z,27.23
2022-11-06T11:47:10.336Z,27.02
2022-11-06T11:49:59.331Z,27.02
2022-11-06T11:52:48.338Z,26.91
2022-11-06T11:55:38.327Z,27.03
2022-11-06T11:58:41.335Z,27.13
2022-11-06T12:01:49.781Z,27.10
2022-11-06T12:04:51.825Z,27.15
2022-11-06T12:07:47.751Z,27.34
2022-11-06T12:10:52.439Z,27.19
2022-11-06T12:13:35.961Z,27.17
2022-11-06T12:16:33.387Z,27.24
2022-11-06T12:19:16.346Z,27.28
2022-11-06T12:22:13.324Z,27.19
2022-11-06T12:25:24.259Z,27.23
2022-11-06T12:28:21.350Z,27.22
2022-11-06T12:31:25.113Z,27.24
2022-11-06T12:34:17.520Z,27.19
2022-11-06T12:37:32.244Z,26.98
2022-11-06T12:40:28.703Z,26.69
2022-11-06T12:43:29.319Z,26.41
2022-11-06T12:46:22.710Z,26.26
2022-11-06T12:49:51.251Z,26.23
2022-11-06T12:52:54.050Z,26.35
2022-11-06T12:55:52.043Z,26.27
2022-11-06T12:59:13.337Z,26.87
2022-11-06T13:02:31.461Z,26.90
2022-11-06T13:05:31.734Z,26.95
2022-11-06T13:08:31.816Z,26.97
2022-11-06T13:11:51.822Z,27.14
2022-11-06T13:14:33.767Z,26.98
2022-11-06T13:17:34.244Z,26.87
2022-11-06T13:20:36.422Z,26.97
2022-11-06T13:23:26.777Z,27.09
2022-11-06T13:26:28.447Z,27.00
2022-11-06T13:29:23.612Z,27.10
2022-11-06T13:32:10.258Z,27.14
2022-11-06T13:35:01.675Z,26.92
2022-11-06T13:37:47.481Z,26.92
2022-11-06T13:40:33.132Z,26.87
2022-11-06T13:43:25.832Z,26.50
2022-11-06T13:46:20.552Z,26.34
2022-11-06T13:49:37.592Z,26.38
2022-11-06T13:52:51.738Z,26.38
2022-11-06T13:55:55.358Z,26.49
2022-11-06T13:59:14.349Z,26.47
2022-11-06T14:02:54.339Z,26.30
2022-11-06T14:05:48.586Z,26.21
2022-11-06T14:09:08.355Z,26.51
2022-11-06T14:12:15.091Z,26.75
2022-11-06T14:15:08.228Z,26.44
2022-11-06T14:18:03.345Z,26.35
2022-11-06T14:20:54.238Z,26.53
2022-11-06T14:23:36.635Z,26.34
2022-11-06T14:26:28.777Z,26.53
2022-11-06T14:29:29.744Z,26.51
2022-11-06T14:32:49.991Z,26.27
2022-11-06T14:35:35.135Z,26.26
2022-11-06T14:38:25.355Z,26.26
2022-11-06T14:41:41.860Z,26.29
2022-11-06T14:44:40.760Z,26.74
2022-11-06T14:48:02.455Z,26.91
2022-11-06T14:50:49.673Z,27.02
2022-11-06T14:53:46.359Z,27.08
2022-11-06T14:56:41.353Z,27.21
2022-11-06T14:59:29.367Z,27.29
2022-11-06T15:02:43.426Z,27.27
2022-11-06T15:05:41.729Z,26.92
2022-11-06T15:09:00.339Z,27.12
2022-11-06T15:11:58.671Z,26.83
2022-11-06T15:14:40.328Z,26.68
2022-11-06T15:17:26.878Z,26.52
2022-11-06T15:20:23.229Z,26.71
2022-11-06T15:23:16.667Z,26.90
2022-11-06T15:26:19.344Z,26.83
2022-11-06T15:29:08.365Z,26.78
2022-11-06T15:31:57.779Z,26.78
2022-11-06T15:35:01.318Z,26.16
2022-11-06T15:37:58.401Z,26.69
2022-11-06T15:40:49.849Z,26.32
2022-11-06T15:43:43.339Z,26.67
2022-11-06T15:46:29.452Z,26.94
2022-11-06T15:49:33.345Z,27.06
2022-11-06T15:52:19.418Z,26.98
2022-11-06T15:55:08.242Z,27.05
2022-11-06T15:57:57.538Z,26.85
2022-11-06T16:00:49.363Z,27.13
2022-11-06T16:03:35.122Z,26.87
2022-11-06T16:06:26.832Z,26.22
2022-11-06T16:09:23.325Z,25.91
2022-11-06T16:12:06.684Z,25.72
2022-11-06T16:14:56.350Z,25.73
2022-11-06T16:17:40.838Z,25.13
2022-11-06T16:20:31.315Z,25.37
2022-11-06T16:23:14.097Z,24.94
2022-11-06T16:26:10.262Z,25.03
2022-11-06T16:28:56.452Z,24.93
2022-11-06T16:31:45.388Z,24.64
2022-11-06T16:34:45.292Z,24.57
2022-11-06T16:37:37.226Z,24.07
2022-11-06T16:41:02.585Z,24.08
2022-11-06T16:43:52.157Z,24.16
2022-11-06T16:47:19.253Z,24.51
2022-11-06T16:50:09.318Z,24.11
2022-11-06T16:53:10.490Z,24.14
2022-11-06T16:56:11.305Z,23.89
2022-11-06T16:59:24.353Z,23.93
2022-11-06T17:02:13.485Z,23.76
2022-11-06T17:04:55.695Z,23.87
2022-11-06T17:07:44.309Z,24.15
2022-11-06T17:10:34.825Z,24.31
2022-11-06T17:13:39.323Z,24.14
2022-11-06T17:16:31.328Z,24.40
2022-11-06T17:19:13.727Z,24.39
2022-11-06T17:22:03.314Z,24.72
2022-11-06T17:24:45.550Z,24.70
2022-11-06T17:27:34.371Z,24.60
2022-11-06T17:30:17.447Z,24.55
2022-11-06T17:33:06.311Z,24.68
2022-11-06T17:35:56.760Z,24.79
2022-11-06T17:38:39.329Z,25.18
2022-11-06T17:41:37.466Z,24.88
2022-11-06T17:44:20.847Z,24.81
2022-11-06T17:47:09.349Z,24.89
2022-11-06T17:49:58.352Z,24.31
2022-11-06T17:52:40.707Z,24.76
2022-11-06T17:55:29.302Z,24.40
2022-11-06T17:58:11.889Z,25.06
2022-11-06T18:01:01.351Z,24.69
2022-11-06T18:03:46.109Z,24.56
2022-11-06T18:06:35.238Z,24.11
2022-11-06T18:09:23.007Z,24.38
2022-11-06T18:12:12.336Z,24.38
2022-11-06T18:14:55.424Z,24.96
2022-11-06T18:17:44.391Z,24.22
2022-11-06T18:20:35.145Z,24.57
2022-11-06T18:23:17.339Z,24.27
2022-11-06T18:26:06.756Z,23.84
2022-11-06T18:28:49.765Z,24.33
2022-11-06T18:31:38.822Z,24.11
2022-11-06T18:34:22.292Z,24.00
2022-11-06T18:37:04.890Z,24.41
2022-11-06T18:39:53.309Z,24.80
2022-11-06T18:42:35.810Z,24.29
2022-11-06T18:45:24.317Z,24.50
2022-11-06T18:48:07.755Z,24.29
2022-11-06T18:50:56.336Z,23.81
2022-11-06T18:53:47.550Z,23.68
2022-11-06T18:56:30.219Z,24.12
2022-11-06T18:59:24.358Z,23.81
2022-11-06T19:02:06.856Z,23.88
2022-11-06T19:04:55.374Z,24.48
2022-11-06T19:07:38.032Z,23.90
2022-11-06T19:10:27.330Z,24.12
2022-11-06T19:13:09.756Z,23.85
2022-11-06T19:15:58.390Z,23.67
2022-11-06T19:18:43.800Z,24.03
2022-11-06T19:21:32.319Z,24.10
2022-11-06T19:24:21.579Z,24.03
2022-11-06T19:27:10.380Z,23.91
2022-11-06T19:29:53.681Z,23.33
2022-11-06T19:32:43.032Z,23.56
2022-11-06T19:35:25.656Z,23.17
2022-11-06T19:38:16.100Z,22.95
2022-11-06T19:41:08.867Z,23.56
2022-11-06T19:43:57.321Z,23.11
2022-11-06T19:46:39.573Z,22.32
2022-11-06T19:49:28.317Z,22.79
2022-11-06T19:52:42.860Z,22.07
2022-11-06T19:55:27.909Z,22.01
2022-11-06T19:58:10.306Z,22.59
2022-11-06T20:00:59.306Z,22.43
2022-11-06T20:03:48.314Z,22.29
2022-11-06T20:06:37.211Z,22.16
2022-11-06T20:09:26.203Z,22.71
2022-11-06T20:12:16.056Z,22.50
2022-11-06T20:14:59.233Z,22.00
2022-11-06T20:17:48.571Z,21.91
2022-11-06T20:20:35.976Z,22.26
2022-11-06T20:23:25.223Z,21.96
2022-11-06T20:26:14.244Z,22.10
2022-11-06T20:29:03.607Z,21.95
2022-11-06T20:31:47.809Z,22.13
2022-11-06T20:34:39.011Z,21.90
2022-11-06T20:37:44.227Z,21.77
2022-11-06T20:40:31.832Z,22.17
2022-11-06T20:43:23.213Z,22.83
2022-11-06T20:46:05.643Z,22.40
2022-11-06T20:48:54.337Z,22.52
2022-11-06T20:51:59.996Z,22.48
2022-11-06T20:54:47.458Z,22.13
2022-11-06T20:57:29.730Z,22.29
2022-11-06T21:00:21.620Z,22.56
2022-11-06T21:03:03.507Z,22.35
2022-11-06T21:05:52.229Z,22.54
2022-11-06T21:08:35.723Z,22.72
2022-11-06T21:11:28.017Z,22.52
2022-11-06T21:14:11.232Z,22.50
2022-11-06T21:17:01.315Z,22.12
2022-11-06T21:19:43.988Z,22.63
2022-11-06T21:22:34.020Z,21.99
2022-11-06T21:25:16.491Z,21.70
2022-11-06T21:28:08.293Z,22.18
2022-11-06T21:30:57.192Z,21.98
2022-11-06T21:33:46.296Z,22.82
2022-11-06T21:36:44.290Z,22.51
2022-11-06T21:39:31.662Z,22.43
2022-11-06T21:42:23.191Z,22.36
2022-11-06T21:45:14.800Z,22.38
2022-11-06T21:48:10.944Z,22.80
2022-11-06T21:51:02.601Z,22.43
2022-11-06T21:54:09.205Z,22.77
2022-11-06T21:57:02.800Z,22.74
2022-11-06T21:59:44.505Z,22.91
2022-11-06T22:02:33.422Z,22.52
2022-11-06T22:05:15.561Z,22.45
2022-11-06T22:08:04.291Z,22.36
2022-11-06T22:10:46.548Z,22.34
2022-11-06T22:13:35.226Z,22.78
2022-11-06T22:16:26.194Z,22.22
2022-11-06T22:19:08.581Z,22.20
2022-11-06T22:21:57.305Z,21.95
2022-11-06T22:24:40.689Z,22.01
2022-11-06T22:27:29.197Z,22.16
2022-11-06T22:30:12.577Z,21.90
2022-11-06T22:33:01.187Z,22.14
2022-11-06T22:35:43.568Z,21.91
2022-11-06T22:38:32.187Z,21.84
2022-11-06T22:41:17.557Z,21.46
2022-11-06T22:44:07.193Z,21.16
2022-11-06T22:46:49.635Z,21.09
2022-11-06T22:49:38.289Z,21.22
2022-11-06T22:52:20.550Z,21.20
2022-11-06T22:55:09.296Z,21.18
2022-11-06T22:57:51.587Z,20.89
2022-11-06T23:00:40.189Z,21.35
2022-11-06T23:03:22.734Z,21.23
2022-11-06T23:06:14.441Z,21.69
2022-11-06T23:08:56.585Z,21.39
2022-11-06T23:11:47.194Z,21.37
2022-11-06T23:14:36.474Z,21.24
2022-11-06T23:17:25.364Z,21.30
2022-11-06T23:20:08.710Z,21.04
2022-11-06T23:22:58.763Z,21.31
2022-11-06T23:25:41.923Z,21.43
2022-11-06T23:28:31.335Z,21.34
2022-11-06T23:31:14.567Z,21.28
2022-11-06T23:34:03.274Z,21.10
2022-11-06T23:36:45.837Z,21.30
2022-11-06T23:39:34.183Z,21.62
2022-11-06T23:42:23.280Z,21.62
2022-11-06T23:45:31.278Z,21.22
2022-11-06T23:48:18.603Z,21.68
2022-11-06T23:51:08.270Z,21.55
2022-11-06T23:53:51.257Z,21.17
2022-11-06T23:56:42.211Z,21.41
2022-11-06T23:59:24.191Z,21.30
